sensor_id;sensor_type;location;lat;lon;timestamp;pressure;altitude;pressure_sealevel;temperature;humidity
75157;BME280;63736;50.076;8.198;2024-01-15T00:00:25;98388.16;;;-0.41;100.00
75157;BME280;63736;50.076;8.198;2024-01-15T00:02:51;98386.56;;;-0.43;100.00
75157;BME280;63736;50.076;8.198;2024-01-15T00:05:16;98382.22;;;-0.44;100.00
75157;BME280;63736;50.076;8.198;2024-01-15T00:07:41;98387.00;;;-0.51;100.00
75157;BME280;63736;50.076;8.198;2024-01-15T00:10:06;98380.50;;;-0.60;100.00
75157;BME280;63736;50.076;8.198;2024-01-15T00:12:32;98373.66;;;-0.62;100.00
75157;BME280;63736;50.076;8.198;2024-01-15T00:14:57;98365.81;;;-0.62;100.00
75157;BME280;63736;50.076;8.198;2024-01-15T00:17:22;98360.63;;;-0.64;100.00
75157;BME280;63736;50.076;8.198;2024-01-15T00:19:47;98372.13;;;-0.67;100.00
75157;BME280;63736;50.076;8.198;2024-01-15T00:22:12;98368.75;;;-0.69;100.00
75157;BME280;63736;50.076;8.198;2024-01-15T00:24:37;98363.50;;;-0.69;100.00
75157;BME280;63736;50.076;8.198;2024-01-15T00:27:03;98356.97;;;-0.61;100.00
75157;BME280;63736;50.076;8.198;2024-01-15T00:29:29;98357.31;;;-0.52;100.00
75157;BME280;63736;50.076;8.198;2024-01-15T00:31:54;98355.16;;;-0.45;100.00
75157;BME280;63736;50.076;8.198;2024-01-15T00:34:19;98347.69;;;-0.37;100.00
75157;BME280;63736;50.076;8.198;2024-01-15T00:36:44;98348.28;;;-0.31;100.00
75157;BME280;63736;50.076;8.198;2024-01-15T00:39:09;98344.63;;;-0.29;100.00
75157;BME280;63736;50.076;8.198;2024-01-15T00:41:35;98346.69;;;-0.20;100.00
75157;BME280;63736;50.076;8.198;2024-01-15T00:44:01;98342.03;;;-0.14;100.00
75157;BME280;63736;50.076;8.198;2024-01-15T00:46:26;98356.94;;;-0.15;100.00
75157;BME280;63736;50.076;8.198;2024-01-15T00:48:51;98342.59;;;-0.09;100.00
75157;BME280;63736;50.076;8.198;2024-01-15T00:51:16;98340.63;;;-0.06;100.00
75157;BME280;63736;50.076;8.198;2024-01-15T00:53:41;98335.88;;;0.01;100.00
75157;BME280;63736;50.076;8.198;2024-01-15T00:56:07;98330.34;;;0.06;100.00
75157;BME280;63736;50.076;8.198;2024-01-15T00:58:32;98326.78;;;0.07;100.00
75157;BME280;63736;50.076;8.198;2024-01-15T01:00:57;98323.22;;;0.08;100.00
75157;BME280;63736;50.076;8.198;2024-01-15T01:03:22;98321.63;;;0.05;100.00
75157;BME280;63736;50.076;8.198;2024-01-15T01:05:50;98319.19;;;0.02;100.00
75157;BME280;63736;50.076;8.198;2024-01-15T01:08:15;98322.47;;;0.06;100.00
75157;BME280;63736;50.076;8.198;2024-01-15T01:10:41;98319.00;;;0.05;100.00
75157;BME280;63736;50.076;8.198;2024-01-15T01:13:07;98312.72;;;0.08;100.00
75157;BME280;63736;50.076;8.198;2024-01-15T01:15:33;98323.88;;;0.11;100.00
75157;BME280;63736;50.076;8.198;2024-01-15T01:17:58;98319.75;;;0.07;100.00
75157;BME280;63736;50.076;8.198;2024-01-15T01:20:23;98316.19;;;0.08;100.00
75157;BME280;63736;50.076;8.198;2024-01-15T01:22:48;98307.28;;;0.11;100.00
75157;BME280;63736;50.076;8.198;2024-01-15T01:25:13;98307.38;;;0.09;100.00
75157;BME280;63736;50.076;8.198;2024-01-15T01:27:38;98303.81;;;0.10;100.00
75157;BME280;63736;50.076;8.198;2024-01-15T01:30:04;98301.56;;;0.19;100.00
75157;BME280;63736;50.076;8.198;2024-01-15T01:32:29;98292.19;;;0.14;100.00
75157;BME280;63736;50.076;8.198;2024-01-15T01:34:54;98293.69;;;0.19;100.00
75157;BME280;63736;50.076;8.198;2024-01-15T01:37:19;98303.28;;;0.20;100.00
75157;BME280;63736;50.076;8.198;2024-01-15T01:39:45;98300.91;;;0.15;100.00
75157;BME280;63736;50.076;8.198;2024-01-15T01:42:10;98306.25;;;0.13;100.00
75157;BME280;63736;50.076;8.198;2024-01-15T01:44:36;98312.34;;;0.14;100.00
75157;BME280;63736;50.076;8.198;2024-01-15T01:47:01;98315.44;;;0.06;100.00
75157;BME280;63736;50.076;8.198;2024-01-15T01:49:28;98322.38;;;0.07;100.00
75157;BME280;63736;50.076;8.198;2024-01-15T01:51:54;98323.31;;;0.06;100.00
75157;BME280;63736;50.076;8.198;2024-01-15T01:54:22;98325.09;;;0.06;100.00
75157;BME280;63736;50.076;8.198;2024-01-15T01:56:47;98325.38;;;0.01;100.00
75157;BME280;63736;50.076;8.198;2024-01-15T01:59:13;98328.00;;;0.01;100.00
75157;BME280;63736;50.076;8.198;2024-01-15T02:01:39;98330.63;;;0.01;100.00
75157;BME280;63736;50.076;8.198;2024-01-15T02:04:04;98335.41;;;0.09;100.00
75157;BME280;63736;50.076;8.198;2024-01-15T02:06:29;98330.06;;;0.10;100.00
75157;BME280;63736;50.076;8.198;2024-01-15T02:08:55;98318.34;;;0.16;100.00
75157;BME280;63736;50.076;8.198;2024-01-15T02:11:20;98313.47;;;0.24;100.00
75157;BME280;63736;50.076;8.198;2024-01-15T02:13:45;98301.00;;;0.28;100.00
75157;BME280;63736;50.076;8.198;2024-01-15T02:16:11;98300.81;;;0.31;100.00
75157;BME280;63736;50.076;8.198;2024-01-15T02:18:42;98292.28;;;0.27;100.00
75157;BME280;63736;50.076;8.198;2024-01-15T02:21:08;98290.28;;;0.31;100.00
75157;BME280;63736;50.076;8.198;2024-01-15T02:23:33;98288.22;;;0.36;100.00
75157;BME280;63736;50.076;8.198;2024-01-15T02:25:58;98294.25;;;0.38;100.00
75157;BME280;63736;50.076;8.198;2024-01-15T02:28:23;98285.44;;;0.39;100.00
75157;BME280;63736;50.076;8.198;2024-01-15T02:30:49;98284.88;;;0.34;100.00
75157;BME280;63736;50.076;8.198;2024-01-15T02:33:14;98281.84;;;0.40;100.00
75157;BME280;63736;50.076;8.198;2024-01-15T02:35:39;98289.00;;;0.38;100.00
75157;BME280;63736;50.076;8.198;2024-01-15T02:38:05;98286.16;;;0.41;100.00
75157;BME280;63736;50.076;8.198;2024-01-15T02:40:30;98285.03;;;0.45;100.00
75157;BME280;63736;50.076;8.198;2024-01-15T02:42:56;98281.28;;;0.49;100.00
75157;BME280;63736;50.076;8.198;2024-01-15T02:45:21;98288.69;;;0.43;100.00
75157;BME280;63736;50.076;8.198;2024-01-15T02:47:47;98289.00;;;0.38;100.00
75157;BME280;63736;50.076;8.198;2024-01-15T02:50:12;98281.84;;;0.40;100.00
75157;BME280;63736;50.076;8.198;2024-01-15T02:52:37;98278.66;;;0.35;100.00
75157;BME280;63736;50.076;8.198;2024-01-15T02:55:02;98280.25;;;0.38;100.00
75157;BME280;63736;50.076;8.198;2024-01-15T02:57:28;98276.13;;;0.33;100.00
75157;BME280;63736;50.076;8.198;2024-01-15T02:59:53;98288.59;;;0.30;100.00
75157;BME280;63736;50.076;8.198;2024-01-15T03:02:18;98276.81;;;0.23;100.00
75157;BME280;63736;50.076;8.198;2024-01-15T03:04:43;98287.88;;;0.28;100.00
75157;BME280;63736;50.076;8.198;2024-01-15T03:07:09;98283.75;;;0.24;100.00
75157;BME280;63736;50.076;8.198;2024-01-15T03:09:34;98293.03;;;0.29;100.00
75157;BME280;63736;50.076;8.198;2024-01-15T03:11:59;98290.88;;;0.22;100.00
75157;BME280;63736;50.076;8.198;2024-01-15T03:14:24;98298.28;;;0.15;100.00
75157;BME280;63736;50.076;8.198;2024-01-15T03:16:51;98291.34;;;0.14;100.00
75157;BME280;63736;50.076;8.198;2024-01-15T03:19:16;98297.34;;;0.16;100.00
75157;BME280;63736;50.076;8.198;2024-01-15T03:21:41;98288.16;;;0.09;100.00
75157;BME280;63736;50.076;8.198;2024-01-15T03:24:06;98292.84;;;0.18;100.00
75157;BME280;63736;50.076;8.198;2024-01-15T03:26:31;98269.13;;;0.20;100.00
75157;BME280;63736;50.076;8.198;2024-01-15T03:28:57;98280.56;;;0.19;100.00
75157;BME280;63736;50.076;8.198;2024-01-15T03:31:22;98287.31;;;0.23;100.00
75157;BME280;63736;50.076;8.198;2024-01-15T03:33:47;98281.41;;;0.19;100.00
75157;BME280;63736;50.076;8.198;2024-01-15T03:36:12;98281.97;;;0.24;100.00
75157;BME280;63736;50.076;8.198;2024-01-15T03:38:41;98283.00;;;0.22;100.00
75157;BME280;63736;50.076;8.198;2024-01-15T03:41:06;98290.22;;;0.18;100.00
75157;BME280;63736;50.076;8.198;2024-01-15T03:43:32;98281.28;;;0.21;100.00
75157;BME280;63736;50.076;8.198;2024-01-15T03:45:57;98284.31;;;0.14;100.00
75157;BME280;63736;50.076;8.198;2024-01-15T03:48:22;98285.53;;;0.09;100.00
75157;BME280;63736;50.076;8.198;2024-01-15T03:50:48;98278.41;;;0.11;100.00
75157;BME280;63736;50.076;8.198;2024-01-15T03:53:13;98277.94;;;0.19;100.00
75157;BME280;63736;50.076;8.198;2024-01-15T03:55:38;98272.84;;;0.15;100.00
75157;BME280;63736;50.076;8.198;2024-01-15T03:58:03;98278.66;;;0.21;100.00
75157;BME280;63736;50.076;8.198;2024-01-15T04:00:28;98283.47;;;0.14;100.00
75157;BME280;63736;50.076;8.198;2024-01-15T04:02:53;98288.59;;;0.15;100.00
75157;BME280;63736;50.076;8.198;2024-01-15T04:05:19;98287.88;;;0.13;100.00
75157;BME280;63736;50.076;8.198;2024-01-15T04:07:44;98295.00;;;0.11;100.00
75157;BME280;63736;50.076;8.198;2024-01-15T04:10:09;98290.03;;;0.07;100.00
75157;BME280;63736;50.076;8.198;2024-01-15T04:12:34;98284.97;;;0.04;100.00
75157;BME280;63736;50.076;8.198;2024-01-15T04:14:59;98278.50;;;0.09;100.00
75157;BME280;63736;50.076;8.198;2024-01-15T04:17:25;98284.50;;;0.11;100.00
75157;BME280;63736;50.076;8.198;2024-01-15T04:19:50;98279.69;;;0.18;100.00
75157;BME280;63736;50.076;8.198;2024-01-15T04:22:15;98281.41;;;0.19;100.00
75157;BME280;63736;50.076;8.198;2024-01-15T04:24:40;98276.59;;;0.26;100.00
75157;BME280;63736;50.076;8.198;2024-01-15T04:27:06;98279.06;;;0.29;100.00
75157;BME280;63736;50.076;8.198;2024-01-15T04:29:31;98278.84;;;0.32;100.00
75157;BME280;63736;50.076;8.198;2024-01-15T04:31:56;98268.72;;;0.26;100.00
75157;BME280;63736;50.076;8.198;2024-01-15T04:34:22;98264.91;;;0.31;100.00
75157;BME280;63736;50.076;8.198;2024-01-15T04:36:47;98265.53;;;0.35;100.00
75157;BME280;63736;50.076;8.198;2024-01-15T04:39:12;98268.56;;;0.29;100.00
75157;BME280;63736;50.076;8.198;2024-01-15T04:41:37;98261.41;;;0.31;100.00
75157;BME280;63736;50.076;8.198;2024-01-15T04:44:02;98262.34;;;0.30;100.00
75157;BME280;63736;50.076;8.198;2024-01-15T04:46:28;98263.31;;;0.29;100.00
75157;BME280;63736;50.076;8.198;2024-01-15T04:48:53;98266.03;;;0.27;100.00
75157;BME280;63736;50.076;8.198;2024-01-15T04:51:18;98265.06;;;0.28;100.00
75157;BME280;63736;50.076;8.198;2024-01-15T04:53:44;98259.19;;;0.25;100.00
75157;BME280;63736;50.076;8.198;2024-01-15T04:56:09;98249.97;;;0.32;100.00
75157;BME280;63736;50.076;8.198;2024-01-15T04:58:34;98252.00;;;0.41;100.00
75157;BME280;63736;50.076;8.198;2024-01-15T05:00:59;98251.63;;;0.47;100.00
75157;BME280;63736;50.076;8.198;2024-01-15T05:03:24;98246.09;;;0.52;100.00
75157;BME280;63736;50.076;8.198;2024-01-15T05:05:50;98241.56;;;0.54;100.00
75157;BME280;63736;50.076;8.198;2024-01-15T05:08:15;98246.44;;;0.60;100.00
75157;BME280;63736;50.076;8.198;2024-01-15T05:10:40;98250.31;;;0.55;100.00
75157;BME280;63736;50.076;8.198;2024-01-15T05:13:05;98243.91;;;0.59;100.00
75157;BME280;63736;50.076;8.198;2024-01-15T05:15:30;98239.59;;;0.58;100.00
75157;BME280;63736;50.076;8.198;2024-01-15T05:17:55;98239.28;;;0.62;100.00
75157;BME280;63736;50.076;8.198;2024-01-15T05:20:20;98240.06;;;0.64;100.00
75157;BME280;63736;50.076;8.198;2024-01-15T05:22:46;98240.59;;;0.70;100.00
75157;BME280;63736;50.076;8.198;2024-01-15T05:25:11;98241.34;;;0.72;100.00
75157;BME280;63736;50.076;8.198;2024-01-15T05:27:36;98238.50;;;0.75;100.00
75157;BME280;63736;50.076;8.198;2024-01-15T05:30:02;98235.59;;;0.79;100.00
75157;BME280;63736;50.076;8.198;2024-01-15T05:32:27;98234.75;;;0.79;100.00
75157;BME280;63736;50.076;8.198;2024-01-15T05:34:52;98230.34;;;0.79;100.00
75157;BME280;63736;50.076;8.198;2024-01-15T05:37:18;98229.69;;;0.76;100.00
75157;BME280;63736;50.076;8.198;2024-01-15T05:39:43;98231.66;;;0.72;100.00
75157;BME280;63736;50.076;8.198;2024-01-15T05:42:08;98228.22;;;0.72;100.00
75157;BME280;63736;50.076;8.198;2024-01-15T05:44:33;98223.03;;;0.70;100.00
75157;BME280;63736;50.076;8.198;2024-01-15T05:46:58;98222.00;;;0.73;100.00
75157;BME280;63736;50.076;8.198;2024-01-15T05:49:24;98219.19;;;0.76;100.00
75157;BME280;63736;50.076;8.198;2024-01-15T05:51:49;98214.75;;;0.76;100.00
75157;BME280;63736;50.076;8.198;2024-01-15T05:54:14;98221.59;;;0.79;100.00
75157;BME280;63736;50.076;8.198;2024-01-15T05:56:39;98223.19;;;0.81;100.00
75157;BME280;63736;50.076;8.198;2024-01-15T05:59:05;98223.00;;;0.85;100.00
75157;BME280;63736;50.076;8.198;2024-01-15T06:01:30;98219.63;;;0.82;100.00
75157;BME280;63736;50.076;8.198;2024-01-15T06:03:55;98214.25;;;0.84;100.00
75157;BME280;63736;50.076;8.198;2024-01-15T06:06:20;98218.69;;;0.84;100.00
75157;BME280;63736;50.076;8.198;2024-01-15T06:08:45;98214.09;;;0.87;100.00
75157;BME280;63736;50.076;8.198;2024-01-15T06:11:11;98211.34;;;0.89;100.00
75157;BME280;63736;50.076;8.198;2024-01-15T06:13:36;98214.81;;;0.89;100.00
75157;BME280;63736;50.076;8.198;2024-01-15T06:16:01;98209.53;;;0.89;100.00
75157;BME280;63736;50.076;8.198;2024-01-15T06:18:26;98214.91;;;0.88;100.00
75157;BME280;63736;50.076;8.198;2024-01-15T06:20:51;98212.28;;;0.88;100.00
75157;BME280;63736;50.076;8.198;2024-01-15T06:23:17;98202.91;;;0.84;100.00
75157;BME280;63736;50.076;8.198;2024-01-15T06:25:42;98211.63;;;0.84;100.00
75157;BME280;63736;50.076;8.198;2024-01-15T06:28:07;98208.06;;;0.85;100.00
75157;BME280;63736;50.076;8.198;2024-01-15T06:30:32;98217.00;;;0.82;100.00
75157;BME280;63736;50.076;8.198;2024-01-15T06:32:57;98224.88;;;0.82;100.00
75157;BME280;63736;50.076;8.198;2024-01-15T06:35:23;98216.56;;;0.76;100.00
75157;BME280;63736;50.076;8.198;2024-01-15T06:37:48;98220.94;;;0.75;100.00
75157;BME280;63736;50.076;8.198;2024-01-15T06:40:13;98223.78;;;0.72;100.00
75157;BME280;63736;50.076;8.198;2024-01-15T06:42:38;98223.03;;;0.70;100.00
75157;BME280;63736;50.076;8.198;2024-01-15T06:45:04;98227.25;;;0.73;100.00
75157;BME280;63736;50.076;8.198;2024-01-15T06:47:29;98226.53;;;0.71;100.00
75157;BME280;63736;50.076;8.198;2024-01-15T06:49:55;98223.13;;;0.69;100.00
75157;BME280;63736;50.076;8.198;2024-01-15T06:52:21;98230.19;;;0.68;100.00
75157;BME280;63736;50.076;8.198;2024-01-15T06:54:46;98218.09;;;0.65;100.00
75157;BME280;63736;50.076;8.198;2024-01-15T06:57:11;98217.16;;;0.67;100.00
75157;BME280;63736;50.076;8.198;2024-01-15T06:59:36;98214.53;;;0.67;100.00
75157;BME280;63736;50.076;8.198;2024-01-15T07:02:01;98216.13;;;0.69;100.00
75157;BME280;63736;50.076;8.198;2024-01-15T07:04:27;98216.84;;;0.71;100.00
75157;BME280;63736;50.076;8.198;2024-01-15T07:06:53;98210.00;;;0.69;100.00
75157;BME280;63736;50.076;8.198;2024-01-15T07:09:18;98218.91;;;0.66;100.00
75157;BME280;63736;50.076;8.198;2024-01-15T07:11:46;98218.09;;;0.65;100.00
75157;BME280;63736;50.076;8.198;2024-01-15T07:14:11;98211.03;;;0.66;100.00
75157;BME280;63736;50.076;8.198;2024-01-15T07:16:37;98222.09;;;0.71;100.00
75157;BME280;63736;50.076;8.198;2024-01-15T07:19:02;98207.19;;;0.72;100.00
75157;BME280;63736;50.076;8.198;2024-01-15T07:21:27;98216.13;;;0.69;100.00
75157;BME280;63736;50.076;8.198;2024-01-15T07:23:52;98215.16;;;0.70;100.00
75157;BME280;63736;50.076;8.198;2024-01-15T07:26:17;98215.25;;;0.69;100.00
75157;BME280;63736;50.076;8.198;2024-01-15T07:28:43;98219.78;;;0.67;100.00
75157;BME280;63736;50.076;8.198;2024-01-15T07:31:08;98210.22;;;0.65;100.00
75157;BME280;63736;50.076;8.198;2024-01-15T07:33:33;98219.78;;;0.67;100.00
75157;BME280;63736;50.076;8.198;2024-01-15T07:35:59;98210.38;;;0.62;100.00
75157;BME280;63736;50.076;8.198;2024-01-15T07:38:24;98210.50;;;0.61;100.00
75157;BME280;63736;50.076;8.198;2024-01-15T07:40:49;98208.72;;;0.61;100.00
75157;BME280;63736;50.076;8.198;2024-01-15T07:43:15;98216.78;;;0.58;100.00
75157;BME280;63736;50.076;8.198;2024-01-15T07:45:40;98211.53;;;0.58;100.00
75157;BME280;63736;50.076;8.198;2024-01-15T07:48:05;98214.06;;;0.60;100.00
75157;BME280;63736;50.076;8.198;2024-01-15T07:50:30;98218.91;;;0.66;100.00
75157;BME280;63736;50.076;8.198;2024-01-15T07:52:56;98214.41;;;0.68;100.00
75157;BME280;63736;50.076;8.198;2024-01-15T07:55:21;98214.97;;;0.73;100.00
75157;BME280;63736;50.076;8.198;2024-01-15T07:57:46;98222.16;;;0.84;100.00
75157;BME280;63736;50.076;8.198;2024-01-15T08:00:11;98208.50;;;0.92;100.00
75157;BME280;63736;50.076;8.198;2024-01-15T08:02:36;98214.59;;;0.92;100.00
75157;BME280;63736;50.076;8.198;2024-01-15T08:05:01;98209.59;;;1.02;100.00
75157;BME280;63736;50.076;8.198;2024-01-15T08:07:27;98213.50;;;1.09;100.00
75157;BME280;63736;50.076;8.198;2024-01-15T08:09:52;98210.25;;;1.19;100.00
75157;BME280;63736;50.076;8.198;2024-01-15T08:12:18;98215.94;;;1.25;100.00
75157;BME280;63736;50.076;8.198;2024-01-15T08:14:43;98209.66;;;1.28;100.00
75157;BME280;63736;50.076;8.198;2024-01-15T08:17:08;98211.22;;;1.30;100.00
75157;BME280;63736;50.076;8.198;2024-01-15T08:19:33;98209.53;;;1.29;100.00
75157;BME280;63736;50.076;8.198;2024-01-15T08:21:59;98213.75;;;1.32;100.00
75157;BME280;63736;50.076;8.198;2024-01-15T08:24:24;98207.97;;;1.40;100.00
75157;BME280;63736;50.076;8.198;2024-01-15T08:26:49;98203.47;;;1.42;100.00
75157;BME280;63736;50.076;8.198;2024-01-15T08:29:14;98201.66;;;1.42;100.00
75157;BME280;63736;50.076;8.198;2024-01-15T08:31:39;98207.03;;;1.41;100.00
75157;BME280;63736;50.076;8.198;2024-01-15T08:34:04;98207.03;;;1.41;100.00
75157;BME280;63736;50.076;8.198;2024-01-15T08:36:30;98218.38;;;1.41;100.00
75157;BME280;63736;50.076;8.198;2024-01-15T08:38:55;98206.91;;;1.42;100.00
75157;BME280;63736;50.076;8.198;2024-01-15T08:41:21;98209.03;;;1.37;100.00
75157;BME280;63736;50.076;8.198;2024-01-15T08:43:46;98196.81;;;1.36;100.00
75157;BME280;63736;50.076;8.198;2024-01-15T08:46:11;98194.00;;;1.39;100.00
75157;BME280;63736;50.076;8.198;2024-01-15T08:48:36;98199.84;;;1.43;100.00
75157;BME280;63736;50.076;8.198;2024-01-15T08:51:02;98202.50;;;1.43;100.00
75157;BME280;63736;50.076;8.198;2024-01-15T08:53:27;98207.84;;;1.41;100.00
75157;BME280;63736;50.076;8.198;2024-01-15T08:55:53;98212.19;;;1.42;100.00
75157;BME280;63736;50.076;8.198;2024-01-15T08:58:18;98212.28;;;1.41;100.00
75157;BME280;63736;50.076;8.198;2024-01-15T09:00:43;98223.66;;;1.41;100.00
75157;BME280;63736;50.076;8.198;2024-01-15T09:03:08;98224.19;;;1.46;100.00
75157;BME280;63736;50.076;8.198;2024-01-15T09:05:34;98219.88;;;1.58;100.00
75157;BME280;63736;50.076;8.198;2024-01-15T09:07:59;98226.72;;;1.74;100.00
75157;BME280;63736;50.076;8.198;2024-01-15T09:10:24;98226.84;;;1.85;100.00
75157;BME280;63736;50.076;8.198;2024-01-15T09:12:50;98231.56;;;1.93;100.00
75157;BME280;63736;50.076;8.198;2024-01-15T09:15:15;98231.16;;;1.99;100.00
75157;BME280;63736;50.076;8.198;2024-01-15T09:17:40;98228.19;;;2.04;100.00
75157;BME280;63736;50.076;8.198;2024-01-15T09:20:05;98232.91;;;2.11;100.00
75157;BME280;63736;50.076;8.198;2024-01-15T09:22:31;98226.56;;;2.27;100.00
75157;BME280;63736;50.076;8.198;2024-01-15T09:24:56;98214.81;;;2.44;100.00
75157;BME280;63736;50.076;8.198;2024-01-15T09:27:22;98216.63;;;2.68;100.00
75157;BME280;63736;50.076;8.198;2024-01-15T09:29:47;98202.94;;;3.11;100.00
75157;BME280;63736;50.076;8.198;2024-01-15T09:32:12;98199.00;;;3.86;100.00
75157;BME280;63736;50.076;8.198;2024-01-15T09:34:37;98193.91;;;4.51;100.00
75157;BME280;63736;50.076;8.198;2024-01-15T09:37:03;98197.94;;;4.67;100.00
75157;BME280;63736;50.076;8.198;2024-01-15T09:39:29;98192.59;;;4.57;100.00
75157;BME280;63736;50.076;8.198;2024-01-15T09:41:54;98193.56;;;4.44;100.00
75157;BME280;63736;50.076;8.198;2024-01-15T09:44:19;98193.69;;;4.32;100.00
75157;BME280;63736;50.076;8.198;2024-01-15T09:46:46;98190.56;;;4.26;100.00
75157;BME280;63736;50.076;8.198;2024-01-15T09:49:14;98189.53;;;4.18;100.00
75157;BME280;63736;50.076;8.198;2024-01-15T09:51:39;98195.16;;;4.13;100.00
75157;BME280;63736;50.076;8.198;2024-01-15T09:54:05;98190.72;;;4.13;100.00
75157;BME280;63736;50.076;8.198;2024-01-15T09:56:31;98181.69;;;4.16;100.00
75157;BME280;63736;50.076;8.198;2024-01-15T09:58:56;98179.66;;;4.31;100.00
75157;BME280;63736;50.076;8.198;2024-01-15T10:01:22;98188.13;;;4.46;100.00
75157;BME280;63736;50.076;8.198;2024-01-15T10:03:47;98183.56;;;4.59;100.00
75157;BME280;63736;50.076;8.198;2024-01-15T10:06:16;98187.00;;;4.71;100.00
75157;BME280;63736;50.076;8.198;2024-01-15T10:08:47;98188.19;;;4.78;100.00
75157;BME280;63736;50.076;8.198;2024-01-15T10:11:13;98184.97;;;4.75;100.00
75157;BME280;63736;50.076;8.198;2024-01-15T10:13:38;98178.88;;;4.63;100.00
75157;BME280;63736;50.076;8.198;2024-01-15T10:16:04;98192.81;;;4.54;100.00
75157;BME280;63736;50.076;8.198;2024-01-15T10:18:29;98196.06;;;4.46;100.00
75157;BME280;63736;50.076;8.198;2024-01-15T10:20:54;98193.56;;;4.44;100.00
75157;BME280;63736;50.076;8.198;2024-01-15T10:23:20;98197.28;;;4.42;100.00
75157;BME280;63736;50.076;8.198;2024-01-15T10:25:45;98196.59;;;4.40;100.00
75157;BME280;63736;50.076;8.198;2024-01-15T10:28:10;98186.50;;;4.34;100.00
75157;BME280;63736;50.076;8.198;2024-01-15T10:30:35;98191.44;;;4.27;100.00
75157;BME280;63736;50.076;8.198;2024-01-15T10:33:01;98187.09;;;4.14;100.00
75157;BME280;63736;50.076;8.198;2024-01-15T10:35:27;98184.72;;;4.00;100.00
75157;BME280;63736;50.076;8.198;2024-01-15T10:37:52;98173.19;;;3.90;100.00
75157;BME280;63736;50.076;8.198;2024-01-15T10:40:18;98177.16;;;3.84;100.00
75157;BME280;63736;50.076;8.198;2024-01-15T10:42:44;98175.94;;;3.77;100.00
75157;BME280;63736;50.076;8.198;2024-01-15T10:45:09;98160.69;;;3.69;100.00
75157;BME280;63736;50.076;8.198;2024-01-15T10:47:34;98159.72;;;3.59;100.00
75157;BME280;63736;50.076;8.198;2024-01-15T10:50:01;98161.78;;;3.55;100.00
75157;BME280;63736;50.076;8.198;2024-01-15T10:52:27;98152.88;;;3.56;100.00
75157;BME280;63736;50.076;8.198;2024-01-15T10:54:53;98145.44;;;3.50;100.00
75157;BME280;63736;50.076;8.198;2024-01-15T10:57:18;98153.84;;;3.44;100.00
75157;BME280;63736;50.076;8.198;2024-01-15T10:59:45;98148.06;;;3.39;100.00
75157;BME280;63736;50.076;8.198;2024-01-15T11:02:12;98142.41;;;3.32;100.00
75157;BME280;63736;50.076;8.198;2024-01-15T11:04:37;98135.00;;;3.37;100.00
75157;BME280;63736;50.076;8.198;2024-01-15T11:07:03;98133.56;;;3.56;100.00
75157;BME280;63736;50.076;8.198;2024-01-15T11:09:28;98131.28;;;3.74;100.00
75157;BME280;63736;50.076;8.198;2024-01-15T11:12:07;98131.78;;;3.90;100.00
75157;BME280;63736;50.076;8.198;2024-01-15T11:14:33;98124.34;;;3.95;100.00
75157;BME280;63736;50.076;8.198;2024-01-15T11:16:58;98128.63;;;3.96;100.00
75157;BME280;63736;50.076;8.198;2024-01-15T11:19:46;98125.63;;;3.90;100.00
75157;BME280;63736;50.076;8.198;2024-01-15T11:25:02;98125.16;;;3.85;100.00
75157;BME280;63736;50.076;8.198;2024-01-15T11:30:07;98110.25;;;3.84;100.00
75157;BME280;63736;50.076;8.198;2024-01-15T11:32:34;98118.09;;;3.85;100.00
75157;BME280;63736;50.076;8.198;2024-01-15T11:35:01;98123.25;;;3.87;100.00
75157;BME280;63736;50.076;8.198;2024-01-15T11:37:28;98127.19;;;3.92;100.00
75157;BME280;63736;50.076;8.198;2024-01-15T11:39:54;98126.59;;;4.00;100.00
75157;BME280;63736;50.076;8.198;2024-01-15T11:42:20;98122.88;;;4.03;100.00
75157;BME280;63736;50.076;8.198;2024-01-15T11:44:46;98123.72;;;4.03;100.00
75157;BME280;63736;50.076;8.198;2024-01-15T11:47:11;98120.69;;;4.08;100.00
75157;BME280;63736;50.076;8.198;2024-01-15T11:49:58;98115.88;;;4.13;100.00
75157;BME280;63736;50.076;8.198;2024-01-15T11:52:24;98116.00;;;4.23;100.00
75157;BME280;63736;50.076;8.198;2024-01-15T11:57:33;98128.94;;;4.37;100.00
75157;BME280;63736;50.076;8.198;2024-01-15T11:59:59;98121.34;;;4.44;100.00
75157;BME280;63736;50.076;8.198;2024-01-15T12:02:24;98131.28;;;4.52;100.00
75157;BME280;63736;50.076;8.198;2024-01-15T12:04:49;98127.31;;;4.57;100.00
75157;BME280;63736;50.076;8.198;2024-01-15T12:07:14;98130.81;;;4.58;100.00
75157;BME280;63736;50.076;8.198;2024-01-15T12:09:45;98126.59;;;4.55;100.00
75157;BME280;63736;50.076;8.198;2024-01-15T12:12:11;98128.97;;;4.58;100.00
75157;BME280;63736;50.076;8.198;2024-01-15T12:14:40;98130.53;;;4.61;100.00
75157;BME280;63736;50.076;8.198;2024-01-15T12:17:05;98119.97;;;4.61;100.00
75157;BME280;63736;50.076;8.198;2024-01-15T12:19:31;98124.06;;;4.54;100.00
75157;BME280;63736;50.076;8.198;2024-01-15T12:21:56;98122.50;;;4.51;100.00
75157;BME280;63736;50.076;8.198;2024-01-15T12:24:21;98124.22;;;4.41;100.00
75157;BME280;63736;50.076;8.198;2024-01-15T12:26:46;98122.22;;;4.33;100.00
75157;BME280;63736;50.076;8.198;2024-01-15T12:29:12;98120.41;;;4.34;100.00
75157;BME280;63736;50.076;8.198;2024-01-15T12:31:37;98125.09;;;4.30;100.00
75157;BME280;63736;50.076;8.198;2024-01-15T12:34:02;98123.94;;;4.23;100.00
75157;BME280;63736;50.076;8.198;2024-01-15T12:36:30;98124.16;;;4.20;100.00
75157;BME280;63736;50.076;8.198;2024-01-15T12:38:58;98124.53;;;4.15;100.00
75157;BME280;63736;50.076;8.198;2024-01-15T12:41:24;98116.72;;;4.13;100.00
75157;BME280;63736;50.076;8.198;2024-01-15T12:43:49;98117.44;;;4.16;100.00
75157;BME280;63736;50.076;8.198;2024-01-15T12:46:14;98118.16;;;4.18;100.00
75157;BME280;63736;50.076;8.198;2024-01-15T12:48:39;98124.63;;;4.25;100.00
75157;BME280;63736;50.076;8.198;2024-01-15T12:51:05;98122.13;;;4.23;100.00
75157;BME280;63736;50.076;8.198;2024-01-15T12:53:31;98137.00;;;4.24;100.00
75157;BME280;63736;50.076;8.198;2024-01-15T12:55:56;98128.13;;;4.25;100.00
75157;BME280;63736;50.076;8.198;2024-01-15T12:58:21;98129.91;;;4.25;100.00